sensor_id;sensor_type;location;lat;lon;timestamp;temperature;humidity
52899;DHT22;38763;53.096;6.062;2023-05-16T00:01:18;8.50;99.90
52899;DHT22;38763;53.096;6.062;2023-05-16T00:03:43;8.60;99.90
52899;DHT22;38763;53.096;6.062;2023-05-16T00:06:09;8.50;99.90
52899;DHT22;38763;53.096;6.062;2023-05-16T00:08:35;8.50;99.90
52899;DHT22;38763;53.096;6.062;2023-05-16T00:11:01;8.50;99.90
52899;DHT22;38763;53.096;6.062;2023-05-16T00:13:28;8.40;99.90
52899;DHT22;38763;53.096;6.062;2023-05-16T00:15:54;8.40;99.90
52899;DHT22;38763;53.096;6.062;2023-05-16T00:18:21;8.30;99.90
52899;DHT22;38763;53.096;6.062;2023-05-16T00:20:48;8.30;99.90
52899;DHT22;38763;53.096;6.062;2023-05-16T00:23:14;8.30;99.90
52899;DHT22;38763;53.096;6.062;2023-05-16T00:25:40;8.30;99.90
52899;DHT22;38763;53.096;6.062;2023-05-16T00:28:06;8.30;99.90
52899;DHT22;38763;53.096;6.062;2023-05-16T00:30:33;8.30;99.90
52899;DHT22;38763;53.096;6.062;2023-05-16T00:32:59;8.20;99.90
52899;DHT22;38763;53.096;6.062;2023-05-16T00:35:25;8.20;99.90
52899;DHT22;38763;53.096;6.062;2023-05-16T00:37:51;8.30;99.90
52899;DHT22;38763;53.096;6.062;2023-05-16T00:40:16;8.20;99.90
52899;DHT22;38763;53.096;6.062;2023-05-16T00:42:42;8.10;99.90
52899;DHT22;38763;53.096;6.062;2023-05-16T00:45:08;8.10;99.90
52899;DHT22;38763;53.096;6.062;2023-05-16T00:47:35;8.10;99.90
52899;DHT22;38763;53.096;6.062;2023-05-16T00:50:01;8.10;99.90
52899;DHT22;38763;53.096;6.062;2023-05-16T00:52:27;8.00;99.90
52899;DHT22;38763;53.096;6.062;2023-05-16T00:54:53;8.00;99.90
52899;DHT22;38763;53.096;6.062;2023-05-16T00:57:18;7.90;99.90
52899;DHT22;38763;53.096;6.062;2023-05-16T00:59:45;7.90;99.90
52899;DHT22;38763;53.096;6.062;2023-05-16T01:02:12;7.90;99.90
52899;DHT22;38763;53.096;6.062;2023-05-16T01:04:38;7.90;99.90
52899;DHT22;38763;53.096;6.062;2023-05-16T01:07:05;7.90;99.90
52899;DHT22;38763;53.096;6.062;2023-05-16T01:09:31;7.80;99.90
52899;DHT22;38763;53.096;6.062;2023-05-16T01:12:47;7.80;99.90
52899;DHT22;38763;53.096;6.062;2023-05-16T01:17:49;7.80;99.90
52899;DHT22;38763;53.096;6.062;2023-05-16T01:26:15;7.90;99.90
52899;DHT22;38763;53.096;6.062;2023-05-16T01:28:44;7.90;99.90
52899;DHT22;38763;53.096;6.062;2023-05-16T01:31:10;7.90;99.90
52899;DHT22;38763;53.096;6.062;2023-05-16T01:33:36;7.90;99.90
52899;DHT22;38763;53.096;6.062;2023-05-16T01:41:26;7.80;99.90
52899;DHT22;38763;53.096;6.062;2023-05-16T01:44:01;7.80;99.90
52899;DHT22;38763;53.096;6.062;2023-05-16T01:46:33;7.80;99.90
52899;DHT22;38763;53.096;6.062;2023-05-16T01:52:08;7.70;99.90
52899;DHT22;38763;53.096;6.062;2023-05-16T01:54:37;7.60;99.90
52899;DHT22;38763;53.096;6.062;2023-05-16T01:57:05;7.60;99.90
52899;DHT22;38763;53.096;6.062;2023-05-16T01:59:33;7.60;99.90
52899;DHT22;38763;53.096;6.062;2023-05-16T02:01:59;7.60;99.90
52899;DHT22;38763;53.096;6.062;2023-05-16T02:04:25;7.60;99.90
52899;DHT22;38763;53.096;6.062;2023-05-16T02:06:51;7.50;99.90
52899;DHT22;38763;53.096;6.062;2023-05-16T02:09:17;7.60;99.90
52899;DHT22;38763;53.096;6.062;2023-05-16T02:11:43;7.50;99.90
52899;DHT22;38763;53.096;6.062;2023-05-16T02:14:08;7.50;99.90
52899;DHT22;38763;53.096;6.062;2023-05-16T02:16:35;7.40;99.90
52899;DHT22;38763;53.096;6.062;2023-05-16T02:19:00;7.40;99.90
52899;DHT22;38763;53.096;6.062;2023-05-16T02:21:26;7.40;99.90
52899;DHT22;38763;53.096;6.062;2023-05-16T02:23:52;7.40;99.90
52899;DHT22;38763;53.096;6.062;2023-05-16T02:26:17;7.30;99.90
52899;DHT22;38763;53.096;6.062;2023-05-16T02:28:43;7.30;99.90
52899;DHT22;38763;53.096;6.062;2023-05-16T02:31:09;7.30;99.90
52899;DHT22;38763;53.096;6.062;2023-05-16T02:33:34;7.30;99.90
52899;DHT22;38763;53.096;6.062;2023-05-16T02:36:00;7.30;99.90
52899;DHT22;38763;53.096;6.062;2023-05-16T02:38:26;7.30;99.90
52899;DHT22;38763;53.096;6.062;2023-05-16T02:40:52;7.30;99.90
52899;DHT22;38763;53.096;6.062;2023-05-16T02:43:17;7.30;99.90
52899;DHT22;38763;53.096;6.062;2023-05-16T02:45:43;7.30;99.90
52899;DHT22;38763;53.096;6.062;2023-05-16T02:48:09;7.30;99.90
52899;DHT22;38763;53.096;6.062;2023-05-16T02:50:36;7.30;99.90
52899;DHT22;38763;53.096;6.062;2023-05-16T02:53:02;7.20;99.90
52899;DHT22;38763;53.096;6.062;2023-05-16T02:55:28;7.20;99.90
52899;DHT22;38763;53.096;6.062;2023-05-16T02:57:54;7.20;99.90
52899;DHT22;38763;53.096;6.062;2023-05-16T03:00:20;7.20;99.90
52899;DHT22;38763;53.096;6.062;2023-05-16T03:02:45;7.20;99.90
52899;DHT22;38763;53.096;6.062;2023-05-16T03:05:11;7.20;99.90
52899;DHT22;38763;53.096;6.062;2023-05-16T03:07:37;7.20;99.90
52899;DHT22;38763;53.096;6.062;2023-05-16T03:10:04;7.10;99.90
52899;DHT22;38763;53.096;6.062;2023-05-16T03:12:30;7.10;99.90
52899;DHT22;38763;53.096;6.062;2023-05-16T03:14:55;7.10;99.90
52899;DHT22;38763;53.096;6.062;2023-05-16T03:17:21;7.10;99.90
52899;DHT22;38763;53.096;6.062;2023-05-16T03:19:47;7.00;99.90
52899;DHT22;38763;53.096;6.062;2023-05-16T03:22:12;7.00;99.90
52899;DHT22;38763;53.096;6.062;2023-05-16T03:24:38;7.00;99.90
52899;DHT22;38763;53.096;6.062;2023-05-16T03:27:04;7.00;99.90
52899;DHT22;38763;53.096;6.062;2023-05-16T03:29:30;7.10;99.90
52899;DHT22;38763;53.096;6.062;2023-05-16T03:31:56;7.00;99.90
52899;DHT22;38763;53.096;6.062;2023-05-16T03:34:21;7.10;99.90
52899;DHT22;38763;53.096;6.062;2023-05-16T03:36:50;7.00;99.90
52899;DHT22;38763;53.096;6.062;2023-05-16T03:39:16;7.00;99.90
52899;DHT22;38763;53.096;6.062;2023-05-16T03:41:42;7.00;99.90
52899;DHT22;38763;53.096;6.062;2023-05-16T03:44:08;7.00;99.90
52899;DHT22;38763;53.096;6.062;2023-05-16T03:46:34;7.10;99.90
52899;DHT22;38763;53.096;6.062;2023-05-16T03:49:00;7.10;99.90
52899;DHT22;38763;53.096;6.062;2023-05-16T03:51:26;7.10;99.90
52899;DHT22;38763;53.096;6.062;2023-05-16T03:53:53;7.10;99.90
52899;DHT22;38763;53.096;6.062;2023-05-16T03:56:18;7.10;99.90
52899;DHT22;38763;53.096;6.062;2023-05-16T03:58:46;7.10;99.90
52899;DHT22;38763;53.096;6.062;2023-05-16T04:01:12;7.10;99.90
52899;DHT22;38763;53.096;6.062;2023-05-16T04:03:37;7.10;99.90
52899;DHT22;38763;53.096;6.062;2023-05-16T04:06:03;7.10;99.90
52899;DHT22;38763;53.096;6.062;2023-05-16T04:08:29;7.20;99.90
52899;DHT22;38763;53.096;6.062;2023-05-16T04:10:56;7.20;99.90
52899;DHT22;38763;53.096;6.062;2023-05-16T04:13:21;7.20;99.90
52899;DHT22;38763;53.096;6.062;2023-05-16T04:15:47;7.20;99.90
52899;DHT22;38763;53.096;6.062;2023-05-16T04:18:13;7.20;99.90
52899;DHT22;38763;53.096;6.062;2023-05-16T04:20:38;7.10;99.90
52899;DHT22;38763;53.096;6.062;2023-05-16T04:23:04;7.20;99.90
52899;DHT22;38763;53.096;6.062;2023-05-16T04:25:30;7.20;99.90
52899;DHT22;38763;53.096;6.062;2023-05-16T04:27:55;7.20;99.90
52899;DHT22;38763;53.096;6.062;2023-05-16T04:30:21;7.20;99.90
52899;DHT22;38763;53.096;6.062;2023-05-16T04:32:47;7.30;99.90
52899;DHT22;38763;53.096;6.062;2023-05-16T04:35:13;7.30;99.90
52899;DHT22;38763;53.096;6.062;2023-05-16T04:37:38;7.50;99.90
52899;DHT22;38763;53.096;6.062;2023-05-16T04:40:05;7.40;99.90
52899;DHT22;38763;53.096;6.062;2023-05-16T04:42:32;7.40;99.90
52899;DHT22;38763;53.096;6.062;2023-05-16T04:44:57;7.40;99.90
52899;DHT22;38763;53.096;6.062;2023-05-16T04:47:23;7.50;99.90
52899;DHT22;38763;53.096;6.062;2023-05-16T04:49:49;7.60;99.90
52899;DHT22;38763;53.096;6.062;2023-05-16T04:52:14;7.60;99.90
52899;DHT22;38763;53.096;6.062;2023-05-16T04:54:40;7.60;99.90
52899;DHT22;38763;53.096;6.062;2023-05-16T04:57:06;7.70;99.90
52899;DHT22;38763;53.096;6.062;2023-05-16T04:59:32;7.80;99.90
52899;DHT22;38763;53.096;6.062;2023-05-16T05:01:58;7.90;99.90
52899;DHT22;38763;53.096;6.062;2023-05-16T05:04:23;7.90;99.90
52899;DHT22;38763;53.096;6.062;2023-05-16T05:06:49;8.00;99.90
52899;DHT22;38763;53.096;6.062;2023-05-16T05:09:15;8.10;99.90
52899;DHT22;38763;53.096;6.062;2023-05-16T05:11:41;8.20;99.90
52899;DHT22;38763;53.096;6.062;2023-05-16T05:14:07;8.20;99.90
52899;DHT22;38763;53.096;6.062;2023-05-16T05:16:33;8.20;99.90
52899;DHT22;38763;53.096;6.062;2023-05-16T05:18:59;8.40;99.90
52899;DHT22;38763;53.096;6.062;2023-05-16T05:21:25;8.40;99.90
52899;DHT22;38763;53.096;6.062;2023-05-16T05:23:51;8.50;99.90
52899;DHT22;38763;53.096;6.062;2023-05-16T05:26:17;8.60;99.90
52899;DHT22;38763;53.096;6.062;2023-05-16T05:28:42;9.30;99.90
52899;DHT22;38763;53.096;6.062;2023-05-16T05:31:08;9.80;99.90
52899;DHT22;38763;53.096;6.062;2023-05-16T05:33:34;10.00;99.90
52899;DHT22;38763;53.096;6.062;2023-05-16T05:36:00;9.90;99.90
52899;DHT22;38763;53.096;6.062;2023-05-16T05:38:25;9.80;99.90
52899;DHT22;38763;53.096;6.062;2023-05-16T05:40:51;9.60;99.90
52899;DHT22;38763;53.096;6.062;2023-05-16T05:43:17;9.60;99.90
52899;DHT22;38763;53.096;6.062;2023-05-16T05:45:43;9.70;99.90
52899;DHT22;38763;53.096;6.062;2023-05-16T05:48:09;9.70;99.90
52899;DHT22;38763;53.096;6.062;2023-05-16T05:50:35;9.70;99.90
52899;DHT22;38763;53.096;6.062;2023-05-16T05:53:01;9.80;99.90
52899;DHT22;38763;53.096;6.062;2023-05-16T05:55:27;9.70;99.90
52899;DHT22;38763;53.096;6.062;2023-05-16T05:57:52;9.80;99.90
52899;DHT22;38763;53.096;6.062;2023-05-16T06:00:18;9.90;99.90
52899;DHT22;38763;53.096;6.062;2023-05-16T06:02:45;9.90;99.90
52899;DHT22;38763;53.096;6.062;2023-05-16T06:05:11;9.70;99.90
52899;DHT22;38763;53.096;6.062;2023-05-16T06:07:37;9.80;99.90
52899;DHT22;38763;53.096;6.062;2023-05-16T06:10:03;9.80;99.90
52899;DHT22;38763;53.096;6.062;2023-05-16T06:12:30;9.90;99.90
52899;DHT22;38763;53.096;6.062;2023-05-16T06:14:55;9.70;99.90
52899;DHT22;38763;53.096;6.062;2023-05-16T06:17:21;9.80;99.90
52899;DHT22;38763;53.096;6.062;2023-05-16T06:19:47;9.90;99.90
52899;DHT22;38763;53.096;6.062;2023-05-16T06:22:12;9.90;99.90
52899;DHT22;38763;53.096;6.062;2023-05-16T06:24:39;10.10;99.90
52899;DHT22;38763;53.096;6.062;2023-05-16T06:27:05;10.00;99.90
52899;DHT22;38763;53.096;6.062;2023-05-16T06:29:31;10.10;99.90
52899;DHT22;38763;53.096;6.062;2023-05-16T06:31:57;10.30;99.90
52899;DHT22;38763;53.096;6.062;2023-05-16T06:34:22;10.30;99.90
52899;DHT22;38763;53.096;6.062;2023-05-16T06:36:55;10.60;99.90
52899;DHT22;38763;53.096;6.062;2023-05-16T06:39:21;10.90;99.90
52899;DHT22;38763;53.096;6.062;2023-05-16T06:41:46;11.00;99.90
52899;DHT22;38763;53.096;6.062;2023-05-16T06:44:12;10.40;99.90
52899;DHT22;38763;53.096;6.062;2023-05-16T06:46:38;10.30;99.90
52899;DHT22;38763;53.096;6.062;2023-05-16T06:49:03;10.10;99.90
52899;DHT22;38763;53.096;6.062;2023-05-16T06:51:29;9.80;99.90
52899;DHT22;38763;53.096;6.062;2023-05-16T06:53:56;9.90;99.90
52899;DHT22;38763;53.096;6.062;2023-05-16T06:56:22;9.80;99.90
52899;DHT22;38763;53.096;6.062;2023-05-16T06:58:48;10.10;99.90
52899;DHT22;38763;53.096;6.062;2023-05-16T07:01:14;10.20;99.90
52899;DHT22;38763;53.096;6.062;2023-05-16T07:03:40;10.40;99.90
52899;DHT22;38763;53.096;6.062;2023-05-16T07:06:06;10.30;99.90
52899;DHT22;38763;53.096;6.062;2023-05-16T07:08:32;10.30;99.90
52899;DHT22;38763;53.096;6.062;2023-05-16T07:10:57;10.30;99.90
52899;DHT22;38763;53.096;6.062;2023-05-16T07:13:23;10.30;99.90
52899;DHT22;38763;53.096;6.062;2023-05-16T07:15:49;10.30;99.90
52899;DHT22;38763;53.096;6.062;2023-05-16T07:18:14;10.10;99.90
52899;DHT22;38763;53.096;6.062;2023-05-16T07:20:40;10.00;99.90
52899;DHT22;38763;53.096;6.062;2023-05-16T07:23:06;10.10;99.90
52899;DHT22;38763;53.096;6.062;2023-05-16T07:25:31;10.40;99.90
52899;DHT22;38763;53.096;6.062;2023-05-16T07:27:57;11.10;99.90
52899;DHT22;38763;53.096;6.062;2023-05-16T07:30:24;12.10;99.90
52899;DHT22;38763;53.096;6.062;2023-05-16T07:32:49;12.80;99.90
52899;DHT22;38763;53.096;6.062;2023-05-16T07:35:15;13.20;99.90
52899;DHT22;38763;53.096;6.062;2023-05-16T07:37:41;14.10;99.90
52899;DHT22;38763;53.096;6.062;2023-05-16T07:40:09;14.30;99.90
52899;DHT22;38763;53.096;6.062;2023-05-16T07:42:34;14.10;99.90
52899;DHT22;38763;53.096;6.062;2023-05-16T07:45:00;13.40;99.90
52899;DHT22;38763;53.096;6.062;2023-05-16T07:47:26;12.60;99.90
52899;DHT22;38763;53.096;6.062;2023-05-16T07:49:52;11.80;99.90
52899;DHT22;38763;53.096;6.062;2023-05-16T07:52:18;12.50;99.90
52899;DHT22;38763;53.096;6.062;2023-05-16T07:54:46;13.20;99.90
52899;DHT22;38763;53.096;6.062;2023-05-16T07:57:13;13.70;99.90
52899;DHT22;38763;53.096;6.062;2023-05-16T07:59:40;14.40;99.90
52899;DHT22;38763;53.096;6.062;2023-05-16T08:02:05;15.10;99.90
52899;DHT22;38763;53.096;6.062;2023-05-16T08:04:31;15.40;99.90
52899;DHT22;38763;53.096;6.062;2023-05-16T08:06:57;15.20;99.90
52899;DHT22;38763;53.096;6.062;2023-05-16T08:09:22;14.40;99.90
52899;DHT22;38763;53.096;6.062;2023-05-16T08:11:48;14.00;99.90
52899;DHT22;38763;53.096;6.062;2023-05-16T08:14:14;14.10;99.90
52899;DHT22;38763;53.096;6.062;2023-05-16T08:16:39;14.40;99.90
52899;DHT22;38763;53.096;6.062;2023-05-16T08:19:05;15.20;99.90
52899;DHT22;38763;53.096;6.062;2023-05-16T08:21:31;15.40;99.90
52899;DHT22;38763;53.096;6.062;2023-05-16T08:23:57;15.40;99.90
52899;DHT22;38763;53.096;6.062;2023-05-16T08:26:23;15.60;99.90
52899;DHT22;38763;53.096;6.062;2023-05-16T08:28:49;16.00;99.90
52899;DHT22;38763;53.096;6.062;2023-05-16T08:31:15;15.00;99.90
52899;DHT22;38763;53.096;6.062;2023-05-16T08:33:41;14.50;99.90
52899;DHT22;38763;53.096;6.062;2023-05-16T08:36:08;14.90;99.90
52899;DHT22;38763;53.096;6.062;2023-05-16T08:38:34;14.90;99.90
52899;DHT22;38763;53.096;6.062;2023-05-16T08:40:59;14.90;99.90
52899;DHT22;38763;53.096;6.062;2023-05-16T08:43:25;14.20;99.90
52899;DHT22;38763;53.096;6.062;2023-05-16T08:45:51;14.50;99.90
52899;DHT22;38763;53.096;6.062;2023-05-16T08:48:22;14.60;99.90
52899;DHT22;38763;53.096;6.062;2023-05-16T08:50:47;14.50;99.90
52899;DHT22;38763;53.096;6.062;2023-05-16T08:53:16;15.00;99.90
52899;DHT22;38763;53.096;6.062;2023-05-16T08:55:45;14.50;99.90
52899;DHT22;38763;53.096;6.062;2023-05-16T08:58:11;14.10;99.90
52899;DHT22;38763;53.096;6.062;2023-05-16T09:00:38;14.20;99.90
52899;DHT22;38763;53.096;6.062;2023-05-16T09:03:04;14.30;99.90
52899;DHT22;38763;53.096;6.062;2023-05-16T09:05:30;13.90;99.90
52899;DHT22;38763;53.096;6.062;2023-05-16T09:07:56;13.70;99.90
52899;DHT22;38763;53.096;6.062;2023-05-16T09:10:22;13.80;99.90
52899;DHT22;38763;53.096;6.062;2023-05-16T09:12:47;13.70;99.90
52899;DHT22;38763;53.096;6.062;2023-05-16T09:15:13;13.60;99.90
52899;DHT22;38763;53.096;6.062;2023-05-16T09:17:45;13.20;99.90
52899;DHT22;38763;53.096;6.062;2023-05-16T09:20:14;13.50;99.90
52899;DHT22;38763;53.096;6.062;2023-05-16T09:22:53;14.20;99.90
52899;DHT22;38763;53.096;6.062;2023-05-16T09:25:23;14.90;99.90
52899;DHT22;38763;53.096;6.062;2023-05-16T09:27:54;15.40;99.90
52899;DHT22;38763;53.096;6.062;2023-05-16T09:30:21;15.00;99.90
52899;DHT22;38763;53.096;6.062;2023-05-16T09:32:51;15.40;99.90
52899;DHT22;38763;53.096;6.062;2023-05-16T09:35:18;15.20;99.90
52899;DHT22;38763;53.096;6.062;2023-05-16T09:37:48;14.70;99.90
52899;DHT22;38763;53.096;6.062;2023-05-16T09:40:14;14.70;99.90
52899;DHT22;38763;53.096;6.062;2023-05-16T09:42:41;15.10;99.90
52899;DHT22;38763;53.096;6.062;2023-05-16T09:45:12;15.60;99.90
52899;DHT22;38763;53.096;6.062;2023-05-16T09:47:38;15.60;99.90
52899;DHT22;38763;53.096;6.062;2023-05-16T09:50:14;15.20;99.90
52899;DHT22;38763;53.096;6.062;2023-05-16T09:52:41;14.60;99.90
52899;DHT22;38763;53.096;6.062;2023-05-16T09:55:07;14.60;99.90
52899;DHT22;38763;53.096;6.062;2023-05-16T09:57:36;15.40;99.90
52899;DHT22;38763;53.096;6.062;2023-05-16T10:00:05;14.80;99.90
52899;DHT22;38763;53.096;6.062;2023-05-16T10:02:33;14.90;99.90
52899;DHT22;38763;53.096;6.062;2023-05-16T10:04:59;15.00;99.90
52899;DHT22;38763;53.096;6.062;2023-05-16T10:07:25;15.10;99.90
52899;DHT22;38763;53.096;6.062;2023-05-16T10:09:52;15.10;99.90
52899;DHT22;38763;53.096;6.062;2023-05-16T10:12:19;14.70;99.90
52899;DHT22;38763;53.096;6.062;2023-05-16T10:14:47;14.60;99.90
52899;DHT22;38763;53.096;6.062;2023-05-16T10:17:15;14.60;99.90
52899;DHT22;38763;53.096;6.062;2023-05-16T10:19:41;14.90;99.90
52899;DHT22;38763;53.096;6.062;2023-05-16T10:22:07;14.70;99.90
52899;DHT22;38763;53.096;6.062;2023-05-16T10:24:56;14.10;99.90
52899;DHT22;38763;53.096;6.062;2023-05-16T10:27:24;13.90;99.90
52899;DHT22;38763;53.096;6.062;2023-05-16T10:29:50;14.50;99.90
52899;DHT22;38763;53.096;6.062;2023-05-16T10:32:17;15.10;99.90
52899;DHT22;38763;53.096;6.062;2023-05-16T10:34:45;15.30;99.90
52899;DHT22;38763;53.096;6.062;2023-05-16T10:37:10;15.30;99.90
52899;DHT22;38763;53.096;6.062;2023-05-16T10:39:37;15.40;99.90
52899;DHT22;38763;53.096;6.062;2023-05-16T10:42:05;15.50;99.90
52899;DHT22;38763;53.096;6.062;2023-05-16T10:44:31;15.80;99.90
52899;DHT22;38763;53.096;6.062;2023-05-16T10:46:59;15.30;99.90
52899;DHT22;38763;53.096;6.062;2023-05-16T10:49:26;14.80;99.90
52899;DHT22;38763;53.096;6.062;2023-05-16T10:54:42;14.80;99.90
52899;DHT22;38763;53.096;6.062;2023-05-16T10:57:10;14.10;99.90
52899;DHT22;38763;53.096;6.062;2023-05-16T10:59:42;14.30;99.90
52899;DHT22;38763;53.096;6.062;2023-05-16T11:04:56;14.40;99.90
52899;DHT22;38763;53.096;6.062;2023-05-16T11:07:24;14.20;99.90
52899;DHT22;38763;53.096;6.062;2023-05-16T11:10:08;13.70;99.90
52899;DHT22;38763;53.096;6.062;2023-05-16T11:12:37;13.50;99.90
52899;DHT22;38763;53.096;6.062;2023-05-16T11:15:21;13.10;99.90
52899;DHT22;38763;53.096;6.062;2023-05-16T11:17:47;12.40;99.90
52899;DHT22;38763;53.096;6.062;2023-05-16T11:20:45;12.60;99.90
52899;DHT22;38763;53.096;6.062;2023-05-16T11:25:43;13.00;99.90
52899;DHT22;38763;53.096;6.062;2023-05-16T11:28:11;13.30;99.90
52899;DHT22;38763;53.096;6.062;2023-05-16T11:30:45;13.50;99.90
52899;DHT22;38763;53.096;6.062;2023-05-16T11:33:11;13.80;99.90
52899;DHT22;38763;53.096;6.062;2023-05-16T11:35:37;14.10;99.90
52899;DHT22;38763;53.096;6.062;2023-05-16T11:38:03;14.20;99.90
52899;DHT22;38763;53.096;6.062;2023-05-16T11:40:29;14.40;99.90
52899;DHT22;38763;53.096;6.062;2023-05-16T11:42:59;14.30;99.90
52899;DHT22;38763;53.096;6.062;2023-05-16T11:45:24;14.40;99.90
52899;DHT22;38763;53.096;6.062;2023-05-16T11:47:51;14.20;99.90
52899;DHT22;38763;53.096;6.062;2023-05-16T11:50:21;14.50;99.90
52899;DHT22;38763;53.096;6.062;2023-05-16T11:52:52;14.50;99.90
52899;DHT22;38763;53.096;6.062;2023-05-16T11:55:27;14.20;99.90
52899;DHT22;38763;53.096;6.062;2023-05-16T11:57:58;14.10;99.90
52899;DHT22;38763;53.096;6.062;2023-05-16T12:00:26;14.10;99.90
52899;DHT22;38763;53.096;6.062;2023-05-16T12:02:53;14.30;99.90
52899;DHT22;38763;53.096;6.062;2023-05-16T12:05:20;14.50;99.90
52899;DHT22;38763;53.096;6.062;2023-05-16T12:07:50;14.60;99.90
52899;DHT22;38763;53.096;6.062;2023-05-16T12:10:18;14.50;99.90
52899;DHT22;38763;53.096;6.062;2023-05-16T12:12:47;14.50;99.90
52899;DHT22;38763;53.096;6.062;2023-05-16T12:15:13;14.70;99.90
52899;DHT22;38763;53.096;6.062;2023-05-16T12:17:40;14.90;99.90
52899;DHT22;38763;53.096;6.062;2023-05-16T12:20:08;15.10;99.90
52899;DHT22;38763;53.096;6.062;2023-05-16T12:22:39;15.20;99.90
52899;DHT22;38763;53.096;6.062;2023-05-16T12:25:20;14.80;99.90
52899;DHT22;38763;53.096;6.062;2023-05-16T12:27:46;14.20;99.90
52899;DHT22;38763;53.096;6.062;2023-05-16T12:30:12;14.70;99.90
52899;DHT22;38763;53.096;6.062;2023-05-16T12:32:40;14.70;99.90
52899;DHT22;38763;53.096;6.062;2023-05-16T12:35:06;15.00;99.90
52899;DHT22;38763;53.096;6.062;2023-05-16T12:37:35;14.80;99.30
52899;DHT22;38763;53.096;6.062;2023-05-16T12:40:01;14.70;99.90
52899;DHT22;38763;53.096;6.062;2023-05-16T12:42:29;14.90;99.90
52899;DHT22;38763;53.096;6.062;2023-05-16T12:44:55;14.80;99.90
52899;DHT22;38763;53.096;6.062;2023-05-16T12:47:21;14.70;99.90
52899;DHT22;38763;53.096;6.062;2023-05-16T12:49:48;14.60;99.40
52899;DHT22;38763;53.096;6.062;2023-05-16T12:52:19;14.50;99.90
52899;DHT22;38763;53.096;6.062;2023-05-16T12:54:46;14.50;99.90
52899;DHT22;38763;53.096;6.062;2023-05-16T12:57:12;14.40;99.90
52899;DHT22;38763;53.096;6.062;2023-05-16T12:59:38;14.30;99.90
52899;DHT22;38763;53.096;6.062;2023-05-16T13:02:04;14.30;99.90
52899;DHT22;38763;53.096;6.062;2023-05-16T13:04:30;14.30;99.90
52899;DHT22;38763;53.096;6.062;2023-05-16T13:06:56;14.40;99.90
52899;DHT22;38763;53.096;6.062;2023-05-16T13:09:22;14.60;99.90
52899;DHT22;38763;53.096;6.062;2023-05-16T13:11:48;14.50;99.90
52899;DHT22;38763;53.096;6.062;2023-05-16T13:14:15;14.30;99.90
52899;DHT22;38763;53.096;6.062;2023-05-16T13:16:42;14.30;99.90
52899;DHT22;38763;53.096;6.062;2023-05-16T13:19:08;14.50;99.90
52899;DHT22;38763;53.096;6.062;2023-05-16T13:21:34;14.70;99.90
52899;DHT22;38763;53.096;6.062;2023-05-16T13:24:00;14.80;99.90
52899;DHT22;38763;53.096;6.062;2023-05-16T13:26:25;14.80;99.90
52899;DHT22;38763;53.096;6.062;2023-05-16T13:28:52;14.60;99.90
52899;DHT22;38763;53.096;6.062;2023-05-16T13:31:19;14.50;99.90
52899;DHT22;38763;53.096;6.062;2023-05-16T13:33:46;14.30;99.90
52899;DHT22;38763;53.096;6.062;2023-05-16T13:36:12;14.10;99.90
52899;DHT22;38763;53.096;6.062;2023-05-16T13:38:38;14.10;99.90
52899;DHT22;38763;53.096;6.062;2023-05-16T13:41:03;13.90;99.90
52899;DHT22;38763;53.096;6.062;2023-05-16T13:43:29;13.90;99.90
52899;DHT22;38763;53.096;6.062;2023-05-16T13:45:54;14.00;99.90
52899;DHT22;38763;53.096;6.062;2023-05-16T13:48:21;14.00;99.90
52899;DHT22;38763;53.096;6.062;2023-05-16T13:50:47;14.20;99.90
52899;DHT22;38763;53.096;6.062;2023-05-16T13:53:12;14.30;99.90
52899;DHT22;38763;53.096;6.062;2023-05-16T13:55:38;13.90;99.90
52899;DHT22;38763;53.096;6.062;2023-05-16T13:58:04;14.00;99.90
52899;DHT22;38763;53.096;6.062;2023-05-16T14:00:30;14.00;99.90
52899;DHT22;38763;53.096;6.062;2023-05-16T14:02:55;13.80;99.90
52899;DHT22;38763;53.096;6.062;2023-05-16T14:05:21;14.10;99.90
52899;DHT22;38763;53.096;6.062;2023-05-16T14:07:47;14.40;99.90
52899;DHT22;38763;53.096;6.062;2023-05-16T14:10:13;14.50;99.90
52899;DHT22;38763;53.096;6.062;2023-05-16T14:12:38;14.70;99.90
52899;DHT22;38763;53.096;6.062;2023-05-16T14:15:05;14.90;99.90
52899;DHT22;38763;53.096;6.062;2023-05-16T14:17:31;15.00;99.90
52899;DHT22;38763;53.096;6.062;2023-05-16T14:19:57;14.80;99.90
52899;DHT22;38763;53.096;6.062;2023-05-16T14:22:23;14.60;99.90
52899;DHT22;38763;53.096;6.062;2023-05-16T14:24:48;14.70;99.90
52899;DHT22;38763;53.096;6.062;2023-05-16T14:27:14;14.50;99.90
52899;DHT22;38763;53.096;6.062;2023-05-16T14:29:41;14.50;99.90
52899;DHT22;38763;53.096;6.062;2023-05-16T14:32:08;14.30;99.90
52899;DHT22;38763;53.096;6.062;2023-05-16T14:34:35;14.20;99.90
52899;DHT22;38763;53.096;6.062;2023-05-16T14:37:01;14.20;99.90
52899;DHT22;38763;53.096;6.062;2023-05-16T14:39:26;14.30;99.90
52899;DHT22;38763;53.096;6.062;2023-05-16T14:41:52;14.10;99.90
52899;DHT22;38763;53.096;6.062;2023-05-16T14:44:18;14.10;99.90
52899;DHT22;38763;53.096;6.062;2023-05-16T14:46:46;14.20;99.90
52899;DHT22;38763;53.096;6.062;2023-05-16T14:49:12;14.00;99.90
52899;DHT22;38763;53.096;6.062;2023-05-16T14:51:37;13.90;99.90
52899;DHT22;38763;53.096;6.062;2023-05-16T14:54:03;14.00;99.90
52899;DHT22;38763;53.096;6.062;2023-05-16T14:56:30;14.00;99.90
52899;DHT22;38763;53.096;6.062;2023-05-16T14:58:56;13.90;99.90
52899;DHT22;38763;53.096;6.062;2023-05-16T15:01:22;14.10;99.90
52899;DHT22;38763;53.096;6.062;2023-05-16T15:03:47;14.20;99.90
52899;DHT22;38763;53.096;6.062;2023-05-16T15:06:13;14.00;99.90
52899;DHT22;38763;53.096;6.062;2023-05-16T15:08:39;14.00;99.90
52899;DHT22;38763;53.096;6.062;2023-05-16T15:11:05;14.10;99.90
52899;DHT22;38763;53.096;6.062;2023-05-16T15:13:30;14.00;99.90
52899;DHT22;38763;53.096;6.062;2023-05-16T15:15:56;14.00;99.90
52899;DHT22;38763;53.096;6.062;2023-05-16T15:18:22;14.00;99.90
52899;DHT22;38763;53.096;6.062;2023-05-16T15:20:48;13.70;99.90
52899;DHT22;38763;53.096;6.062;2023-05-16T15:23:16;13.80;99.90
52899;DHT22;38763;53.096;6.062;2023-05-16T15:25:42;13.50;99.90
52899;DHT22;38763;53.096;6.062;2023-05-16T15:28:07;13.60;99.90
52899;DHT22;38763;53.096;6.062;2023-05-16T15:30:33;13.60;99.90
52899;DHT22;38763;53.096;6.062;2023-05-16T15:32:59;13.30;99.90
52899;DHT22;38763;53.096;6.062;2023-05-16T15:35:24;13.40;99.90
52899;DHT22;38763;53.096;6.062;2023-05-16T15:37:50;13.40;99.90
52899;DHT22;38763;53.096;6.062;2023-05-16T15:40:17;13.40;99.90
52899;DHT22;38763;53.096;6.062;2023-05-16T15:42:42;13.10;99.90
52899;DHT22;38763;53.096;6.062;2023-05-16T15:45:10;13.20;99.90
52899;DHT22;38763;53.096;6.062;2023-05-16T15:47:36;13.40;99.90
52899;DHT22;38763;53.096;6.062;2023-05-16T15:50:02;13.40;99.90
52899;DHT22;38763;53.096;6.062;2023-05-16T15:52:28;13.30;99.90
52899;DHT22;38763;53.096;6.062;2023-05-16T15:54:54;13.40;99.90
52899;DHT22;38763;53.096;6.062;2023-05-16T15:57:19;13.30;99.90
52899;DHT22;38763;53.096;6.062;2023-05-16T15:59:45;13.40;99.90